sensor_id;sensor_type;location;lat;lon;timestamp;P1;durP1;ratioP1;P2;durP2;ratioP2
20857;SDS011;10589;53.636;10.012;2023-06-26T03:47:12;10.55;;;9.50;;
20857;SDS011;10589;53.636;10.012;2023-06-26T03:49:38;10.45;;;9.55;;
20857;SDS011;10589;53.636;10.012;2023-06-26T03:52:03;10.93;;;9.10;;
20857;SDS011;10589;53.636;10.012;2023-06-26T03:54:29;10.23;;;9.23;;
20857;SDS011;10589;53.636;10.012;2023-06-26T03:56:55;10.07;;;9.05;;
20857;SDS011;10589;53.636;10.012;2023-06-26T03:59:20;9.68;;;8.88;;
20857;SDS011;10589;53.636;10.012;2023-06-26T04:01:46;11.82;;;9.25;;
20857;SDS011;10589;53.636;10.012;2023-06-26T04:04:11;10.35;;;9.35;;
20857;SDS011;10589;53.636;10.012;2023-06-26T04:06:37;9.77;;;8.98;;
20857;SDS011;10589;53.636;10.012;2023-06-26T04:09:02;11.00;;;9.48;;
20857;SDS011;10589;53.636;10.012;2023-06-26T04:11:29;9.90;;;8.98;;
20857;SDS011;10589;53.636;10.012;2023-06-26T04:13:55;8.75;;;7.93;;
20857;SDS011;10589;53.636;10.012;2023-06-26T04:16:21;10.00;;;8.55;;
20857;SDS011;10589;53.636;10.012;2023-06-26T04:18:50;8.55;;;7.60;;
20857;SDS011;10589;53.636;10.012;2023-06-26T04:21:16;9.15;;;8.25;;
20857;SDS011;10589;53.636;10.012;2023-06-26T04:23:43;9.15;;;8.38;;
20857;SDS011;10589;53.636;10.012;2023-06-26T04:26:08;9.60;;;8.70;;
20857;SDS011;10589;53.636;10.012;2023-06-26T04:28:38;8.48;;;7.68;;
20857;SDS011;10589;53.636;10.012;2023-06-26T04:31:03;9.00;;;8.10;;
20857;SDS011;10589;53.636;10.012;2023-06-26T04:33:29;8.15;;;7.45;;
20857;SDS011;10589;53.636;10.012;2023-06-26T04:35:55;9.35;;;8.30;;
20857;SDS011;10589;53.636;10.012;2023-06-26T04:38:21;9.05;;;8.15;;
20857;SDS011;10589;53.636;10.012;2023-06-26T04:40:47;8.45;;;7.65;;
20857;SDS011;10589;53.636;10.012;2023-06-26T04:43:13;8.57;;;7.78;;
20857;SDS011;10589;53.636;10.012;2023-06-26T04:45:38;8.75;;;7.85;;
20857;SDS011;10589;53.636;10.012;2023-06-26T04:48:04;7.55;;;6.95;;
20857;SDS011;10589;53.636;10.012;2023-06-26T04:50:31;8.70;;;7.90;;
20857;SDS011;10589;53.636;10.012;2023-06-26T04:52:58;8.48;;;7.63;;
20857;SDS011;10589;53.636;10.012;2023-06-26T04:55:24;7.97;;;7.28;;
20857;SDS011;10589;53.636;10.012;2023-06-26T04:57:50;8.45;;;7.65;;
20857;SDS011;10589;53.636;10.012;2023-06-26T05:00:16;8.25;;;7.53;;
20857;SDS011;10589;53.636;10.012;2023-06-26T05:02:42;7.63;;;6.75;;
20857;SDS011;10589;53.636;10.012;2023-06-26T05:05:08;7.68;;;6.97;;
20857;SDS011;10589;53.636;10.012;2023-06-26T05:07:33;8.05;;;7.35;;
20857;SDS011;10589;53.636;10.012;2023-06-26T05:09:59;8.07;;;7.28;;
20857;SDS011;10589;53.636;10.012;2023-06-26T05:12:25;7.72;;;6.93;;
20857;SDS011;10589;53.636;10.012;2023-06-26T05:14:50;8.93;;;8.13;;
20857;SDS011;10589;53.636;10.012;2023-06-26T05:17:16;7.38;;;6.68;;
20857;SDS011;10589;53.636;10.012;2023-06-26T05:19:42;8.65;;;7.80;;
20857;SDS011;10589;53.636;10.012;2023-06-26T05:22:07;8.45;;;7.65;;
20857;SDS011;10589;53.636;10.012;2023-06-26T05:24:34;8.00;;;7.30;;
20857;SDS011;10589;53.636;10.012;2023-06-26T05:27:01;9.57;;;7.38;;
20857;SDS011;10589;53.636;10.012;2023-06-26T05:29:27;7.07;;;6.47;;
20857;SDS011;10589;53.636;10.012;2023-06-26T05:31:55;7.07;;;6.47;;
20857;SDS011;10589;53.636;10.012;2023-06-26T05:34:22;9.20;;;7.75;;
20857;SDS011;10589;53.636;10.012;2023-06-26T05:36:48;7.40;;;6.70;;
20857;SDS011;10589;53.636;10.012;2023-06-26T05:39:16;8.50;;;6.80;;
20857;SDS011;10589;53.636;10.012;2023-06-26T05:41:43;7.55;;;6.82;;
20857;SDS011;10589;53.636;10.012;2023-06-26T05:44:09;9.93;;;6.82;;
20857;SDS011;10589;53.636;10.012;2023-06-26T05:46:35;7.18;;;6.57;;
20857;SDS011;10589;53.636;10.012;2023-06-26T05:49:01;8.60;;;6.88;;
20857;SDS011;10589;53.636;10.012;2023-06-26T05:53:59;10.35;;;7.43;;
20857;SDS011;10589;53.636;10.012;2023-06-26T05:56:25;8.48;;;6.93;;
20857;SDS011;10589;53.636;10.012;2023-06-26T05:58:51;7.75;;;6.95;;
20857;SDS011;10589;53.636;10.012;2023-06-26T06:01:18;9.93;;;7.18;;
20857;SDS011;10589;53.636;10.012;2023-06-26T06:03:44;7.20;;;6.45;;
20857;SDS011;10589;53.636;10.012;2023-06-26T06:06:10;11.35;;;7.07;;
20857;SDS011;10589;53.636;10.012;2023-06-26T06:08:36;12.00;;;6.80;;
20857;SDS011;10589;53.636;10.012;2023-06-26T06:11:04;7.88;;;7.00;;
20857;SDS011;10589;53.636;10.012;2023-06-26T06:13:30;6.88;;;6.03;;
20857;SDS011;10589;53.636;10.012;2023-06-26T06:15:55;7.50;;;6.70;;
20857;SDS011;10589;53.636;10.012;2023-06-26T06:18:21;10.07;;;7.05;;
20857;SDS011;10589;53.636;10.012;2023-06-26T06:20:47;7.15;;;6.22;;
20857;SDS011;10589;53.636;10.012;2023-06-26T06:23:12;10.57;;;7.28;;
20857;SDS011;10589;53.636;10.012;2023-06-26T06:25:38;8.60;;;6.55;;
20857;SDS011;10589;53.636;10.012;2023-06-26T06:28:04;7.88;;;6.75;;
20857;SDS011;10589;53.636;10.012;2023-06-26T06:30:30;8.00;;;6.65;;
20857;SDS011;10589;53.636;10.012;2023-06-26T06:32:56;7.20;;;6.00;;
20857;SDS011;10589;53.636;10.012;2023-06-26T06:37:58;7.97;;;5.85;;
20857;SDS011;10589;53.636;10.012;2023-06-26T06:40:23;7.30;;;6.35;;
20857;SDS011;10589;53.636;10.012;2023-06-26T06:42:50;7.90;;;6.65;;
20857;SDS011;10589;53.636;10.012;2023-06-26T06:45:16;9.02;;;6.25;;
20857;SDS011;10589;53.636;10.012;2023-06-26T06:47:41;9.88;;;6.57;;
20857;SDS011;10589;53.636;10.012;2023-06-26T06:50:08;7.70;;;6.22;;
20857;SDS011;10589;53.636;10.012;2023-06-26T06:52:37;8.18;;;6.40;;
20857;SDS011;10589;53.636;10.012;2023-06-26T06:55:05;10.13;;;6.78;;
20857;SDS011;10589;53.636;10.012;2023-06-26T06:57:33;6.57;;;5.95;;
20857;SDS011;10589;53.636;10.012;2023-06-26T07:00:03;7.93;;;6.78;;
20857;SDS011;10589;53.636;10.012;2023-06-26T07:02:29;9.15;;;5.57;;
20857;SDS011;10589;53.636;10.012;2023-06-26T07:04:55;10.57;;;6.32;;
20857;SDS011;10589;53.636;10.012;2023-06-26T07:07:21;6.63;;;5.97;;
20857;SDS011;10589;53.636;10.012;2023-06-26T07:09:46;7.00;;;6.15;;
20857;SDS011;10589;53.636;10.012;2023-06-26T07:12:12;6.88;;;6.10;;
20857;SDS011;10589;53.636;10.012;2023-06-26T07:14:38;6.40;;;5.80;;
20857;SDS011;10589;53.636;10.012;2023-06-26T07:17:04;9.13;;;6.38;;
20857;SDS011;10589;53.636;10.012;2023-06-26T07:19:32;8.48;;;6.13;;
20857;SDS011;10589;53.636;10.012;2023-06-26T07:21:57;7.72;;;5.90;;
20857;SDS011;10589;53.636;10.012;2023-06-26T07:24:23;6.72;;;6.05;;
20857;SDS011;10589;53.636;10.012;2023-06-26T07:26:48;8.10;;;5.82;;
20857;SDS011;10589;53.636;10.012;2023-06-26T07:29:14;10.23;;;6.40;;
20857;SDS011;10589;53.636;10.012;2023-06-26T07:31:39;10.38;;;6.65;;
20857;SDS011;10589;53.636;10.012;2023-06-26T07:34:05;6.78;;;6.15;;
20857;SDS011;10589;53.636;10.012;2023-06-26T07:36:31;6.65;;;5.95;;
20857;SDS011;10589;53.636;10.012;2023-06-26T07:38:56;8.32;;;6.10;;
20857;SDS011;10589;53.636;10.012;2023-06-26T07:41:22;8.65;;;6.10;;
20857;SDS011;10589;53.636;10.012;2023-06-26T07:43:47;10.38;;;6.32;;
20857;SDS011;10589;53.636;10.012;2023-06-26T07:46:13;6.55;;;5.85;;
20857;SDS011;10589;53.636;10.012;2023-06-26T07:48:38;15.50;;;6.43;;
20857;SDS011;10589;53.636;10.012;2023-06-26T07:51:05;8.07;;;5.93;;
20857;SDS011;10589;53.636;10.012;2023-06-26T07:53:30;9.95;;;5.82;;
20857;SDS011;10589;53.636;10.012;2023-06-26T07:55:56;5.93;;;5.35;;
20857;SDS011;10589;53.636;10.012;2023-06-26T07:58:21;7.68;;;5.97;;
20857;SDS011;10589;53.636;10.012;2023-06-26T08:00:47;8.70;;;6.32;;
20857;SDS011;10589;53.636;10.012;2023-06-26T08:03:13;6.43;;;5.80;;
20857;SDS011;10589;53.636;10.012;2023-06-26T08:05:38;7.70;;;5.70;;
20857;SDS011;10589;53.636;10.012;2023-06-26T08:08:04;7.85;;;5.72;;
20857;SDS011;10589;53.636;10.012;2023-06-26T08:10:30;7.72;;;5.95;;
20857;SDS011;10589;53.636;10.012;2023-06-26T08:12:55;7.30;;;5.93;;
20857;SDS011;10589;53.636;10.012;2023-06-26T08:15:21;6.80;;;6.20;;
20857;SDS011;10589;53.636;10.012;2023-06-26T08:17:46;8.43;;;6.43;;
20857;SDS011;10589;53.636;10.012;2023-06-26T08:20:12;6.55;;;5.85;;
20857;SDS011;10589;53.636;10.012;2023-06-26T08:22:38;8.25;;;6.18;;
20857;SDS011;10589;53.636;10.012;2023-06-26T08:25:03;7.45;;;6.35;;
20857;SDS011;10589;53.636;10.012;2023-06-26T08:27:30;12.45;;;6.20;;
20857;SDS011;10589;53.636;10.012;2023-06-26T08:29:56;7.03;;;6.43;;
20857;SDS011;10589;53.636;10.012;2023-06-26T08:32:22;8.30;;;6.13;;
20857;SDS011;10589;53.636;10.012;2023-06-26T08:34:48;7.47;;;6.20;;
20857;SDS011;10589;53.636;10.012;2023-06-26T08:37:13;8.23;;;6.15;;
20857;SDS011;10589;53.636;10.012;2023-06-26T08:39:39;7.13;;;5.82;;
20857;SDS011;10589;53.636;10.012;2023-06-26T08:42:04;6.75;;;6.10;;
20857;SDS011;10589;53.636;10.012;2023-06-26T08:44:31;6.75;;;5.80;;
20857;SDS011;10589;53.636;10.012;2023-06-26T08:46:59;6.00;;;5.50;;
20857;SDS011;10589;53.636;10.012;2023-06-26T08:49:28;6.50;;;5.85;;
20857;SDS011;10589;53.636;10.012;2023-06-26T08:52:02;6.68;;;6.03;;
20857;SDS011;10589;53.636;10.012;2023-06-26T08:54:37;6.53;;;5.93;;
20857;SDS011;10589;53.636;10.012;2023-06-26T08:57:10;7.30;;;5.70;;
20857;SDS011;10589;53.636;10.012;2023-06-26T08:59:36;9.70;;;5.60;;
20857;SDS011;10589;53.636;10.012;2023-06-26T09:02:02;11.05;;;6.05;;
20857;SDS011;10589;53.636;10.012;2023-06-26T09:04:28;6.90;;;5.93;;
20857;SDS011;10589;53.636;10.012;2023-06-26T09:06:55;7.93;;;6.00;;
20857;SDS011;10589;53.636;10.012;2023-06-26T09:09:20;7.28;;;6.57;;
20857;SDS011;10589;53.636;10.012;2023-06-26T09:11:46;7.85;;;6.18;;
20857;SDS011;10589;53.636;10.012;2023-06-26T09:14:11;7.20;;;6.50;;
20857;SDS011;10589;53.636;10.012;2023-06-26T09:16:41;7.88;;;7.07;;
20857;SDS011;10589;53.636;10.012;2023-06-26T09:19:11;12.02;;;7.35;;
20857;SDS011;10589;53.636;10.012;2023-06-26T09:21:41;9.82;;;7.93;;
20857;SDS011;10589;53.636;10.012;2023-06-26T09:24:07;10.05;;;6.93;;
20857;SDS011;10589;53.636;10.012;2023-06-26T09:26:36;7.55;;;6.75;;
20857;SDS011;10589;53.636;10.012;2023-06-26T09:29:04;12.13;;;8.52;;
20857;SDS011;10589;53.636;10.012;2023-06-26T09:31:30;12.52;;;8.70;;
20857;SDS011;10589;53.636;10.012;2023-06-26T09:33:59;7.53;;;6.82;;
20857;SDS011;10589;53.636;10.012;2023-06-26T09:36:27;9.18;;;7.65;;
20857;SDS011;10589;53.636;10.012;2023-06-26T09:38:53;12.70;;;8.30;;
20857;SDS011;10589;53.636;10.012;2023-06-26T09:41:19;13.23;;;8.40;;
20857;SDS011;10589;53.636;10.012;2023-06-26T09:43:46;11.85;;;7.93;;
20857;SDS011;10589;53.636;10.012;2023-06-26T09:46:15;19.95;;;8.48;;
20857;SDS011;10589;53.636;10.012;2023-06-26T09:48:57;11.32;;;8.38;;
20857;SDS011;10589;53.636;10.012;2023-06-26T09:51:23;11.57;;;8.40;;
20857;SDS011;10589;53.636;10.012;2023-06-26T09:53:49;14.30;;;8.27;;
20857;SDS011;10589;53.636;10.012;2023-06-26T09:56:15;10.32;;;7.35;;
20857;SDS011;10589;53.636;10.012;2023-06-26T09:58:44;12.07;;;7.72;;
20857;SDS011;10589;53.636;10.012;2023-06-26T10:01:10;9.68;;;7.90;;
20857;SDS011;10589;53.636;10.012;2023-06-26T10:03:36;11.85;;;8.43;;
20857;SDS011;10589;53.636;10.012;2023-06-26T10:06:02;10.77;;;8.65;;
20857;SDS011;10589;53.636;10.012;2023-06-26T10:08:28;13.45;;;8.50;;
20857;SDS011;10589;53.636;10.012;2023-06-26T10:10:55;10.90;;;8.02;;
20857;SDS011;10589;53.636;10.012;2023-06-26T10:13:27;9.65;;;8.57;;
20857;SDS011;10589;53.636;10.012;2023-06-26T10:15:59;13.48;;;9.02;;
20857;SDS011;10589;53.636;10.012;2023-06-26T10:18:26;15.38;;;8.77;;
20857;SDS011;10589;53.636;10.012;2023-06-26T10:20:53;14.60;;;9.75;;
20857;SDS011;10589;53.636;10.012;2023-06-26T10:23:22;11.30;;;10.18;;
20857;SDS011;10589;53.636;10.012;2023-06-26T10:25:51;17.80;;;10.43;;
20857;SDS011;10589;53.636;10.012;2023-06-26T10:28:17;15.55;;;11.43;;
20857;SDS011;10589;53.636;10.012;2023-06-26T10:30:45;17.35;;;12.68;;
20857;SDS011;10589;53.636;10.012;2023-06-26T10:33:12;14.38;;;12.35;;
20857;SDS011;10589;53.636;10.012;2023-06-26T10:35:42;16.88;;;12.48;;
20857;SDS011;10589;53.636;10.012;2023-06-26T10:38:09;14.25;;;12.55;;
20857;SDS011;10589;53.636;10.012;2023-06-26T10:40:41;12.88;;;10.35;;
20857;SDS011;10589;53.636;10.012;2023-06-26T10:43:10;10.02;;;8.82;;
20857;SDS011;10589;53.636;10.012;2023-06-26T10:45:42;13.85;;;10.90;;
20857;SDS011;10589;53.636;10.012;2023-06-26T10:48:19;13.15;;;9.60;;
20857;SDS011;10589;53.636;10.012;2023-06-26T10:50:49;14.02;;;11.43;;
20857;SDS011;10589;53.636;10.012;2023-06-26T10:55:59;13.65;;;9.98;;
20857;SDS011;10589;53.636;10.012;2023-06-26T11:03:43;11.50;;;9.57;;
20857;SDS011;10589;53.636;10.012;2023-06-26T11:06:10;13.43;;;10.95;;
20857;SDS011;10589;53.636;10.012;2023-06-26T11:08:44;13.35;;;10.50;;
20857;SDS011;10589;53.636;10.012;2023-06-26T11:11:13;15.45;;;10.73;;
20857;SDS011;10589;53.636;10.012;2023-06-26T11:13:40;13.95;;;9.63;;
20857;SDS011;10589;53.636;10.012;2023-06-26T11:16:06;12.48;;;9.43;;
20857;SDS011;10589;53.636;10.012;2023-06-26T11:18:32;12.48;;;7.75;;
20857;SDS011;10589;53.636;10.012;2023-06-26T11:21:11;9.23;;;7.32;;
20857;SDS011;10589;53.636;10.012;2023-06-26T11:23:39;10.80;;;6.72;;
20857;SDS011;10589;53.636;10.012;2023-06-26T11:26:15;10.65;;;6.90;;
20857;SDS011;10589;53.636;10.012;2023-06-26T11:28:46;11.82;;;7.03;;
20857;SDS011;10589;53.636;10.012;2023-06-26T11:33:51;9.75;;;5.40;;
20857;SDS011;10589;53.636;10.012;2023-06-26T11:36:17;11.18;;;5.72;;
20857;SDS011;10589;53.636;10.012;2023-06-26T11:38:43;10.98;;;4.82;;
20857;SDS011;10589;53.636;10.012;2023-06-26T11:41:09;12.25;;;5.05;;
20857;SDS011;10589;53.636;10.012;2023-06-26T11:43:34;12.77;;;4.53;;
20857;SDS011;10589;53.636;10.012;2023-06-26T11:46:00;9.80;;;4.30;;
20857;SDS011;10589;53.636;10.012;2023-06-26T11:48:26;13.27;;;4.00;;
20857;SDS011;10589;53.636;10.012;2023-06-26T11:50:51;12.75;;;3.92;;
20857;SDS011;10589;53.636;10.012;2023-06-26T11:53:17;11.23;;;3.17;;
20857;SDS011;10589;53.636;10.012;2023-06-26T11:55:43;11.85;;;2.97;;
20857;SDS011;10589;53.636;10.012;2023-06-26T11:58:08;7.80;;;2.38;;
20857;SDS011;10589;53.636;10.012;2023-06-26T12:00:34;8.10;;;2.58;;
20857;SDS011;10589;53.636;10.012;2023-06-26T12:02:59;10.52;;;2.67;;
20857;SDS011;10589;53.636;10.012;2023-06-26T12:05:26;7.72;;;2.10;;
20857;SDS011;10589;53.636;10.012;2023-06-26T12:07:52;10.10;;;2.80;;
20857;SDS011;10589;53.636;10.012;2023-06-26T12:10:18;16.75;;;2.97;;
20857;SDS011;10589;53.636;10.012;2023-06-26T12:12:45;9.20;;;2.38;;
20857;SDS011;10589;53.636;10.012;2023-06-26T12:15:13;6.10;;;1.88;;
20857;SDS011;10589;53.636;10.012;2023-06-26T12:17:40;7.25;;;2.10;;
20857;SDS011;10589;53.636;10.012;2023-06-26T12:20:06;8.00;;;2.17;;
20857;SDS011;10589;53.636;10.012;2023-06-26T12:22:46;6.53;;;2.22;;
20857;SDS011;10589;53.636;10.012;2023-06-26T12:25:13;14.35;;;2.22;;
20857;SDS011;10589;53.636;10.012;2023-06-26T12:27:39;9.30;;;2.00;;
20857;SDS011;10589;53.636;10.012;2023-06-26T12:30:05;9.05;;;2.38;;
20857;SDS011;10589;53.636;10.012;2023-06-26T12:32:34;9.07;;;2.50;;
20857;SDS011;10589;53.636;10.012;2023-06-26T12:35:00;11.38;;;2.78;;
20857;SDS011;10589;53.636;10.012;2023-06-26T12:37:25;8.18;;;2.22;;
20857;SDS011;10589;53.636;10.012;2023-06-26T12:42:22;7.55;;;2.10;;
20857;SDS011;10589;53.636;10.012;2023-06-26T12:44:49;7.38;;;2.08;;
20857;SDS011;10589;53.636;10.012;2023-06-26T12:47:15;5.25;;;1.98;;
20857;SDS011;10589;53.636;10.012;2023-06-26T12:49:42;6.88;;;2.30;;
20857;SDS011;10589;53.636;10.012;2023-06-26T12:52:15;7.88;;;1.73;;
20857;SDS011;10589;53.636;10.012;2023-06-26T12:54:44;6.63;;;1.95;;
20857;SDS011;10589;53.636;10.012;2023-06-26T12:57:11;6.10;;;2.10;;
20857;SDS011;10589;53.636;10.012;2023-06-26T12:59:39;4.78;;;1.70;;
20857;SDS011;10589;53.636;10.012;2023-06-26T13:02:05;8.43;;;1.80;;
20857;SDS011;10589;53.636;10.012;2023-06-26T13:04:31;6.40;;;1.60;;
20857;SDS011;10589;53.636;10.012;2023-06-26T13:06:58;9.30;;;2.13;;
20857;SDS011;10589;53.636;10.012;2023-06-26T13:09:24;6.80;;;1.75;;
20857;SDS011;10589;53.636;10.012;2023-06-26T13:11:53;5.47;;;1.63;;
20857;SDS011;10589;53.636;10.012;2023-06-26T13:14:19;8.57;;;1.88;;
20857;SDS011;10589;53.636;10.012;2023-06-26T13:16:45;6.03;;;1.73;;
20857;SDS011;10589;53.636;10.012;2023-06-26T13:19:10;4.25;;;1.60;;
20857;SDS011;10589;53.636;10.012;2023-06-26T13:21:36;8.52;;;1.80;;
20857;SDS011;10589;53.636;10.012;2023-06-26T13:24:03;7.72;;;1.42;;
20857;SDS011;10589;53.636;10.012;2023-06-26T13:26:29;4.20;;;1.23;;
20857;SDS011;10589;53.636;10.012;2023-06-26T13:28:55;5.35;;;1.85;;
20857;SDS011;10589;53.636;10.012;2023-06-26T13:31:21;8.52;;;1.33;;
20857;SDS011;10589;53.636;10.012;2023-06-26T13:33:47;5.35;;;1.40;;
20857;SDS011;10589;53.636;10.012;2023-06-26T13:36:17;5.07;;;1.48;;
20857;SDS011;10589;53.636;10.012;2023-06-26T13:38:43;4.40;;;1.95;;
20857;SDS011;10589;53.636;10.012;2023-06-26T13:41:09;6.20;;;1.40;;
20857;SDS011;10589;53.636;10.012;2023-06-26T13:43:34;7.45;;;1.95;;
20857;SDS011;10589;53.636;10.012;2023-06-26T13:46:00;6.85;;;1.88;;
20857;SDS011;10589;53.636;10.012;2023-06-26T13:48:26;6.38;;;1.40;;
20857;SDS011;10589;53.636;10.012;2023-06-26T13:50:52;4.45;;;1.30;;
20857;SDS011;10589;53.636;10.012;2023-06-26T13:53:18;5.68;;;1.27;;
20857;SDS011;10589;53.636;10.012;2023-06-26T13:55:44;4.25;;;1.45;;
20857;SDS011;10589;53.636;10.012;2023-06-26T13:58:10;6.18;;;1.50;;
20857;SDS011;10589;53.636;10.012;2023-06-26T14:00:37;3.78;;;1.60;;
20857;SDS011;10589;53.636;10.012;2023-06-26T14:03:03;3.53;;;0.90;;
20857;SDS011;10589;53.636;10.012;2023-06-26T14:05:29;4.93;;;1.15;;
20857;SDS011;10589;53.636;10.012;2023-06-26T14:07:55;5.50;;;1.50;;
20857;SDS011;10589;53.636;10.012;2023-06-26T14:10:21;3.33;;;1.30;;
20857;SDS011;10589;53.636;10.012;2023-06-26T14:12:49;3.10;;;1.30;;
20857;SDS011;10589;53.636;10.012;2023-06-26T14:15:15;3.17;;;1.30;;
20857;SDS011;10589;53.636;10.012;2023-06-26T14:17:41;2.85;;;1.10;;
20857;SDS011;10589;53.636;10.012;2023-06-26T14:20:07;4.00;;;0.90;;
20857;SDS011;10589;53.636;10.012;2023-06-26T14:22:40;3.00;;;1.38;;
20857;SDS011;10589;53.636;10.012;2023-06-26T14:25:07;3.25;;;1.10;;
20857;SDS011;10589;53.636;10.012;2023-06-26T14:27:34;3.95;;;1.27;;
20857;SDS011;10589;53.636;10.012;2023-06-26T14:29:59;4.28;;;1.17;;
20857;SDS011;10589;53.636;10.012;2023-06-26T14:32:26;7.30;;;1.10;;
20857;SDS011;10589;53.636;10.012;2023-06-26T14:34:52;5.03;;;1.08;;
20857;SDS011;10589;53.636;10.012;2023-06-26T14:37:17;3.03;;;1.02;;
20857;SDS011;10589;53.636;10.012;2023-06-26T14:39:44;3.17;;;1.00;;
20857;SDS011;10589;53.636;10.012;2023-06-26T14:42:10;4.85;;;1.00;;
20857;SDS011;10589;53.636;10.012;2023-06-26T14:44:36;4.88;;;1.17;;
20857;SDS011;10589;53.636;10.012;2023-06-26T14:47:02;4.68;;;1.17;;
20857;SDS011;10589;53.636;10.012;2023-06-26T14:49:27;2.63;;;1.20;;
20857;SDS011;10589;53.636;10.012;2023-06-26T14:51:53;2.35;;;0.90;;
20857;SDS011;10589;53.636;10.012;2023-06-26T14:54:18;3.38;;;1.00;;
20857;SDS011;10589;53.636;10.012;2023-06-26T14:56:44;2.38;;;0.80;;
20857;SDS011;10589;53.636;10.012;2023-06-26T14:59:10;1.95;;;0.88;;
20857;SDS011;10589;53.636;10.012;2023-06-26T15:01:37;2.55;;;0.93;;
20857;SDS011;10589;53.636;10.012;2023-06-26T15:04:03;4.18;;;1.10;;
20857;SDS011;10589;53.636;10.012;2023-06-26T15:06:29;4.97;;;1.00;;
20857;SDS011;10589;53.636;10.012;2023-06-26T15:08:55;4.40;;;1.15;;
20857;SDS011;10589;53.636;10.012;2023-06-26T15:11:20;4.43;;;1.15;;
20857;SDS011;10589;53.636;10.012;2023-06-26T15:13:46;4.82;;;1.10;;
20857;SDS011;10589;53.636;10.012;2023-06-26T15:16:12;5.00;;;1.10;;
20857;SDS011;10589;53.636;10.012;2023-06-26T15:18:37;2.83;;;1.38;;
20857;SDS011;10589;53.636;10.012;2023-06-26T15:21:03;2.83;;;1.10;;
20857;SDS011;10589;53.636;10.012;2023-06-26T15:23:29;2.63;;;1.10;;
20857;SDS011;10589;53.636;10.012;2023-06-26T15:25:54;4.88;;;0.98;;
20857;SDS011;10589;53.636;10.012;2023-06-26T15:28:20;4.03;;;1.10;;
20857;SDS011;10589;53.636;10.012;2023-06-26T15:30:46;2.67;;;1.15;;
20857;SDS011;10589;53.636;10.012;2023-06-26T15:33:12;3.70;;;1.30;;
20857;SDS011;10589;53.636;10.012;2023-06-26T15:35:38;3.85;;;1.40;;
20857;SDS011;10589;53.636;10.012;2023-06-26T15:38:04;3.28;;;1.35;;
20857;SDS011;10589;53.636;10.012;2023-06-26T15:40:30;1.48;;;0.90;;
20857;SDS011;10589;53.636;10.012;2023-06-26T15:42:55;3.65;;;1.15;;
20857;SDS011;10589;53.636;10.012;2023-06-26T15:45:21;5.22;;;1.00;;
20857;SDS011;10589;53.636;10.012;2023-06-26T15:47:49;2.58;;;1.00;;
20857;SDS011;10589;53.636;10.012;2023-06-26T15:50:15;3.13;;;1.00;;
20857;SDS011;10589;53.636;10.012;2023-06-26T15:52:41;5.70;;;1.10;;
20857;SDS011;10589;53.636;10.012;2023-06-26T15:55:07;5.93;;;1.33;;
20857;SDS011;10589;53.636;10.012;2023-06-26T15:57:34;3.95;;;1.10;;
20857;SDS011;10589;53.636;10.012;2023-06-26T16:00:00;4.97;;;1.27;;
20857;SDS011;10589;53.636;10.012;2023-06-26T16:02:28;4.57;;;1.67;;
20857;SDS011;10589;53.636;10.012;2023-06-26T16:04:54;7.20;;;1.27;;
20857;SDS011;10589;53.636;10.012;2023-06-26T16:07:20;4.07;;;1.13;;
20857;SDS011;10589;53.636;10.012;2023-06-26T16:09:46;5.70;;;1.35;;
20857;SDS011;10589;53.636;10.012;2023-06-26T16:12:12;3.78;;;1.27;;
20857;SDS011;10589;53.636;10.012;2023-06-26T16:14:37;3.50;;;1.20;;
20857;SDS011;10589;53.636;10.012;2023-06-26T16:17:03;3.53;;;1.30;;
20857;SDS011;10589;53.636;10.012;2023-06-26T16:19:29;5.90;;;1.38;;
20857;SDS011;10589;53.636;10.012;2023-06-26T16:21:54;3.75;;;1.20;;
20857;SDS011;10589;53.636;10.012;2023-06-26T16:24:21;3.08;;;1.35;;
20857;SDS011;10589;53.636;10.012;2023-06-26T16:26:47;3.38;;;1.30;;
20857;SDS011;10589;53.636;10.012;2023-06-26T16:29:12;3.58;;;1.23;;
20857;SDS011;10589;53.636;10.012;2023-06-26T16:31:38;2.80;;;1.10;;
20857;SDS011;10589;53.636;10.012;2023-06-26T16:34:04;5.03;;;1.10;;
20857;SDS011;10589;53.636;10.012;2023-06-26T16:36:29;5.75;;;1.52;;
20857;SDS011;10589;53.636;10.012;2023-06-26T16:38:55;9.48;;;1.48;;
20857;SDS011;10589;53.636;10.012;2023-06-26T16:41:21;4.65;;;1.17;;
20857;SDS011;10589;53.636;10.012;2023-06-26T16:43:49;3.88;;;1.23;;
20857;SDS011;10589;53.636;10.012;2023-06-26T16:46:15;4.22;;;1.08;;
20857;SDS011;10589;53.636;10.012;2023-06-26T16:48:41;3.40;;;1.40;;
20857;SDS011;10589;53.636;10.012;2023-06-26T16:51:12;5.20;;;1.67;;
20857;SDS011;10589;53.636;10.012;2023-06-26T16:53:37;3.13;;;1.13;;
20857;SDS011;10589;53.636;10.012;2023-06-26T16:56:03;4.13;;;1.60;;
20857;SDS011;10589;53.636;10.012;2023-06-26T16:58:28;4.57;;;1.48;;
20857;SDS011;10589;53.636;10.012;2023-06-26T17:00:55;8.02;;;1.83;;
20857;SDS011;10589;53.636;10.012;2023-06-26T17:03:21;4.80;;;1.60;;
20857;SDS011;10589;53.636;10.012;2023-06-26T17:05:47;4.57;;;1.40;;
20857;SDS011;10589;53.636;10.012;2023-06-26T17:08:13;6.57;;;1.45;;
20857;SDS011;10589;53.636;10.012;2023-06-26T17:10:39;6.30;;;1.40;;
20857;SDS011;10589;53.636;10.012;2023-06-26T17:13:04;5.55;;;1.65;;
20857;SDS011;10589;53.636;10.012;2023-06-26T17:15:30;7.68;;;1.70;;
20857;SDS011;10589;53.636;10.012;2023-06-26T17:17:56;6.07;;;1.80;;
20857;SDS011;10589;53.636;10.012;2023-06-26T17:20:22;4.03;;;1.77;;
20857;SDS011;10589;53.636;10.012;2023-06-26T17:22:48;7.45;;;1.83;;
20857;SDS011;10589;53.636;10.012;2023-06-26T17:25:14;5.60;;;1.58;;
20857;SDS011;10589;53.636;10.012;2023-06-26T17:27:40;6.57;;;1.52;;
20857;SDS011;10589;53.636;10.012;2023-06-26T17:30:06;4.53;;;1.77;;
20857;SDS011;10589;53.636;10.012;2023-06-26T17:32:33;6.22;;;1.63;;
20857;SDS011;10589;53.636;10.012;2023-06-26T17:34:59;4.43;;;1.40;;
20857;SDS011;10589;53.636;10.012;2023-06-26T17:37:25;4.72;;;1.40;;
20857;SDS011;10589;53.636;10.012;2023-06-26T17:39:52;3.92;;;1.70;;
20857;SDS011;10589;53.636;10.012;2023-06-26T17:42:19;8.85;;;1.90;;
20857;SDS011;10589;53.636;10.012;2023-06-26T17:44:45;6.20;;;1.77;;
20857;SDS011;10589;53.636;10.012;2023-06-26T17:47:11;5.82;;;1.80;;
20857;SDS011;10589;53.636;10.012;2023-06-26T17:49:37;6.65;;;1.50;;
20857;SDS011;10589;53.636;10.012;2023-06-26T17:52:03;7.78;;;1.58;;
20857;SDS011;10589;53.636;10.012;2023-06-26T17:54:29;9.02;;;2.08;;
20857;SDS011;10589;53.636;10.012;2023-06-26T17:56:55;5.75;;;1.63;;
20857;SDS011;10589;53.636;10.012;2023-06-26T17:59:21;5.10;;;1.73;;
20857;SDS011;10589;53.636;10.012;2023-06-26T18:01:46;4.30;;;1.90;;
20857;SDS011;10589;53.636;10.012;2023-06-26T18:04:12;7.13;;;1.67;;
20857;SDS011;10589;53.636;10.012;2023-06-26T18:06:38;5.93;;;1.55;;
20857;SDS011;10589;53.636;10.012;2023-06-26T18:09:03;6.07;;;1.50;;
20857;SDS011;10589;53.636;10.012;2023-06-26T18:11:30;6.35;;;2.00;;
20857;SDS011;10589;53.636;10.012;2023-06-26T18:14:00;5.28;;;1.85;;
20857;SDS011;10589;53.636;10.012;2023-06-26T18:16:27;6.57;;;1.25;;
20857;SDS011;10589;53.636;10.012;2023-06-26T18:18:53;8.63;;;1.67;;
20857;SDS011;10589;53.636;10.012;2023-06-26T18:21:19;7.97;;;1.52;;
20857;SDS011;10589;53.636;10.012;2023-06-26T18:23:45;4.45;;;1.45;;
20857;SDS011;10589;53.636;10.012;2023-06-26T18:26:13;6.22;;;1.70;;
20857;SDS011;10589;53.636;10.012;2023-06-26T18:28:40;5.93;;;1.70;;
20857;SDS011;10589;53.636;10.012;2023-06-26T18:31:06;7.70;;;1.73;;